sensor_id;sensor_type;location;lat;lon;timestamp;temperature;humidity
17208;DHT22;8720;48.488;9.202;2023-02-01T00:01:35;7.10;57.70
17208;DHT22;8720;48.488;9.202;2023-02-01T00:04:02;7.10;57.70
17208;DHT22;8720;48.488;9.202;2023-02-01T00:06:29;7.10;57.80
17208;DHT22;8720;48.488;9.202;2023-02-01T00:08:57;7.10;57.80
17208;DHT22;8720;48.488;9.202;2023-02-01T00:11:24;7.00;57.90
17208;DHT22;8720;48.488;9.202;2023-02-01T00:13:53;7.00;58.00
17208;DHT22;8720;48.488;9.202;2023-02-01T00:16:23;7.00;58.00
17208;DHT22;8720;48.488;9.202;2023-02-01T00:18:56;7.00;58.10
17208;DHT22;8720;48.488;9.202;2023-02-01T00:21:24;7.00;58.20
17208;DHT22;8720;48.488;9.202;2023-02-01T00:23:52;7.00;58.40
17208;DHT22;8720;48.488;9.202;2023-02-01T00:26:21;7.00;58.50
17208;DHT22;8720;48.488;9.202;2023-02-01T00:28:54;7.00;58.50
17208;DHT22;8720;48.488;9.202;2023-02-01T00:31:21;6.90;58.40
17208;DHT22;8720;48.488;9.202;2023-02-01T00:33:49;7.00;59.30
17208;DHT22;8720;48.488;9.202;2023-02-01T00:36:16;7.00;58.60
17208;DHT22;8720;48.488;9.202;2023-02-01T00:38:45;7.00;58.60
17208;DHT22;8720;48.488;9.202;2023-02-01T00:41:14;7.00;58.70
17208;DHT22;8720;48.488;9.202;2023-02-01T00:43:43;6.90;58.50
17208;DHT22;8720;48.488;9.202;2023-02-01T00:46:14;7.00;58.70
17208;DHT22;8720;48.488;9.202;2023-02-01T00:48:43;7.00;58.50
17208;DHT22;8720;48.488;9.202;2023-02-01T00:51:12;7.00;58.80
17208;DHT22;8720;48.488;9.202;2023-02-01T00:53:41;6.90;58.50
17208;DHT22;8720;48.488;9.202;2023-02-01T00:56:09;7.00;58.80
17208;DHT22;8720;48.488;9.202;2023-02-01T00:58:37;6.90;58.70
17208;DHT22;8720;48.488;9.202;2023-02-01T01:01:08;7.00;58.90
17208;DHT22;8720;48.488;9.202;2023-02-01T01:03:40;6.90;58.80
17208;DHT22;8720;48.488;9.202;2023-02-01T01:06:11;7.00;58.80
17208;DHT22;8720;48.488;9.202;2023-02-01T01:08:39;7.00;58.90
17208;DHT22;8720;48.488;9.202;2023-02-01T01:11:09;7.00;59.10
17208;DHT22;8720;48.488;9.202;2023-02-01T01:13:39;7.00;59.00
17208;DHT22;8720;48.488;9.202;2023-02-01T01:16:09;7.00;59.20
17208;DHT22;8720;48.488;9.202;2023-02-01T01:18:39;7.00;59.10
17208;DHT22;8720;48.488;9.202;2023-02-01T01:21:08;7.00;59.20
17208;DHT22;8720;48.488;9.202;2023-02-01T01:23:36;7.00;59.10
17208;DHT22;8720;48.488;9.202;2023-02-01T01:26:09;7.00;59.20
17208;DHT22;8720;48.488;9.202;2023-02-01T01:28:39;7.00;59.00
17208;DHT22;8720;48.488;9.202;2023-02-01T01:31:08;7.00;59.40
17208;DHT22;8720;48.488;9.202;2023-02-01T01:33:36;7.00;59.20
17208;DHT22;8720;48.488;9.202;2023-02-01T01:36:06;7.00;59.40
17208;DHT22;8720;48.488;9.202;2023-02-01T01:38:36;7.00;59.20
17208;DHT22;8720;48.488;9.202;2023-02-01T01:41:05;7.00;59.40
17208;DHT22;8720;48.488;9.202;2023-02-01T01:43:51;7.00;59.40
17208;DHT22;8720;48.488;9.202;2023-02-01T01:46:24;7.00;59.30
17208;DHT22;8720;48.488;9.202;2023-02-01T01:48:59;7.00;59.40
17208;DHT22;8720;48.488;9.202;2023-02-01T01:51:36;7.00;59.30
17208;DHT22;8720;48.488;9.202;2023-02-01T01:54:11;7.00;59.20
17208;DHT22;8720;48.488;9.202;2023-02-01T01:56:43;7.00;59.40
17208;DHT22;8720;48.488;9.202;2023-02-01T01:59:12;7.10;59.60
17208;DHT22;8720;48.488;9.202;2023-02-01T02:01:40;7.10;59.60
17208;DHT22;8720;48.488;9.202;2023-02-01T02:04:07;7.10;60.30
17208;DHT22;8720;48.488;9.202;2023-02-01T02:06:41;7.10;59.80
17208;DHT22;8720;48.488;9.202;2023-02-01T02:09:13;7.10;59.50
17208;DHT22;8720;48.488;9.202;2023-02-01T02:11:42;7.10;59.80
17208;DHT22;8720;48.488;9.202;2023-02-01T02:14:11;7.10;59.90
17208;DHT22;8720;48.488;9.202;2023-02-01T02:17:07;7.10;59.80
17208;DHT22;8720;48.488;9.202;2023-02-01T02:20:20;7.10;59.10
17208;DHT22;8720;48.488;9.202;2023-02-01T02:33:34;7.20;59.60
17208;DHT22;8720;48.488;9.202;2023-02-01T02:36:16;7.30;59.60
17208;DHT22;8720;48.488;9.202;2023-02-01T02:38:52;7.20;59.80
17208;DHT22;8720;48.488;9.202;2023-02-01T02:41:33;7.30;60.00
17208;DHT22;8720;48.488;9.202;2023-02-01T02:44:32;7.30;59.90
17208;DHT22;8720;48.488;9.202;2023-02-01T02:47:26;7.30;59.70
17208;DHT22;8720;48.488;9.202;2023-02-01T02:50:15;7.30;60.00
17208;DHT22;8720;48.488;9.202;2023-02-01T02:53:12;7.30;59.50
17208;DHT22;8720;48.488;9.202;2023-02-01T02:56:00;7.40;60.00
17208;DHT22;8720;48.488;9.202;2023-02-01T02:58:48;7.30;60.10
17208;DHT22;8720;48.488;9.202;2023-02-01T03:01:34;7.40;60.20
17208;DHT22;8720;48.488;9.202;2023-02-01T03:04:19;7.40;60.40
17208;DHT22;8720;48.488;9.202;2023-02-01T03:06:50;7.40;60.50
17208;DHT22;8720;48.488;9.202;2023-02-01T03:09:22;7.40;60.40
17208;DHT22;8720;48.488;9.202;2023-02-01T03:11:58;7.40;60.30
17208;DHT22;8720;48.488;9.202;2023-02-01T03:14:55;7.40;60.20
17208;DHT22;8720;48.488;9.202;2023-02-01T03:17:31;7.40;60.30
17208;DHT22;8720;48.488;9.202;2023-02-01T03:20:07;7.40;60.20
17208;DHT22;8720;48.488;9.202;2023-02-01T03:22:41;7.40;60.40
17208;DHT22;8720;48.488;9.202;2023-02-01T03:25:14;7.40;60.30
17208;DHT22;8720;48.488;9.202;2023-02-01T03:27:50;7.40;60.40
17208;DHT22;8720;48.488;9.202;2023-02-01T03:30:23;7.40;60.30
17208;DHT22;8720;48.488;9.202;2023-02-01T03:32:56;7.40;60.40
17208;DHT22;8720;48.488;9.202;2023-02-01T03:35:33;7.40;60.30
17208;DHT22;8720;48.488;9.202;2023-02-01T03:38:14;7.40;60.20
17208;DHT22;8720;48.488;9.202;2023-02-01T03:40:51;7.40;60.10
17208;DHT22;8720;48.488;9.202;2023-02-01T03:43:25;7.40;60.10
17208;DHT22;8720;48.488;9.202;2023-02-01T03:46:02;7.40;60.30
17208;DHT22;8720;48.488;9.202;2023-02-01T03:48:36;7.40;60.20
17208;DHT22;8720;48.488;9.202;2023-02-01T03:51:06;7.40;60.50
17208;DHT22;8720;48.488;9.202;2023-02-01T03:53:39;7.40;60.30
17208;DHT22;8720;48.488;9.202;2023-02-01T03:56:08;7.40;60.00
17208;DHT22;8720;48.488;9.202;2023-02-01T03:58:37;7.40;60.30
17208;DHT22;8720;48.488;9.202;2023-02-01T04:01:05;7.40;60.30
17208;DHT22;8720;48.488;9.202;2023-02-01T04:03:37;7.40;60.40
17208;DHT22;8720;48.488;9.202;2023-02-01T04:06:04;7.30;60.30
17208;DHT22;8720;48.488;9.202;2023-02-01T04:08:32;7.30;60.30
17208;DHT22;8720;48.488;9.202;2023-02-01T04:11:01;7.30;60.30
17208;DHT22;8720;48.488;9.202;2023-02-01T04:13:28;7.30;60.10
17208;DHT22;8720;48.488;9.202;2023-02-01T04:15:56;7.30;60.30
17208;DHT22;8720;48.488;9.202;2023-02-01T04:18:23;7.30;60.40
17208;DHT22;8720;48.488;9.202;2023-02-01T04:20:50;7.30;60.30
17208;DHT22;8720;48.488;9.202;2023-02-01T04:23:17;7.30;60.40
17208;DHT22;8720;48.488;9.202;2023-02-01T04:25:45;7.30;60.50
17208;DHT22;8720;48.488;9.202;2023-02-01T04:28:13;7.30;60.40
17208;DHT22;8720;48.488;9.202;2023-02-01T04:30:41;7.20;60.10
17208;DHT22;8720;48.488;9.202;2023-02-01T04:33:08;7.20;60.40
17208;DHT22;8720;48.488;9.202;2023-02-01T04:35:39;7.20;60.30
17208;DHT22;8720;48.488;9.202;2023-02-01T04:38:06;7.20;60.30
17208;DHT22;8720;48.488;9.202;2023-02-01T04:40:34;7.20;60.30
17208;DHT22;8720;48.488;9.202;2023-02-01T04:43:03;7.20;60.30
17208;DHT22;8720;48.488;9.202;2023-02-01T04:45:32;7.20;60.30
17208;DHT22;8720;48.488;9.202;2023-02-01T04:47:59;7.20;60.10
17208;DHT22;8720;48.488;9.202;2023-02-01T04:50:27;7.20;60.40
17208;DHT22;8720;48.488;9.202;2023-02-01T04:52:54;7.20;60.40
17208;DHT22;8720;48.488;9.202;2023-02-01T04:55:22;7.20;60.50
17208;DHT22;8720;48.488;9.202;2023-02-01T04:57:49;7.20;60.30
17208;DHT22;8720;48.488;9.202;2023-02-01T05:00:17;7.20;60.40
17208;DHT22;8720;48.488;9.202;2023-02-01T05:02:46;7.20;60.30
17208;DHT22;8720;48.488;9.202;2023-02-01T05:05:13;7.20;60.20
17208;DHT22;8720;48.488;9.202;2023-02-01T05:07:41;7.20;60.40
17208;DHT22;8720;48.488;9.202;2023-02-01T05:10:09;7.20;60.30
17208;DHT22;8720;48.488;9.202;2023-02-01T05:12:37;7.20;60.20
17208;DHT22;8720;48.488;9.202;2023-02-01T05:15:22;7.30;60.30
17208;DHT22;8720;48.488;9.202;2023-02-01T05:17:50;7.30;60.20
17208;DHT22;8720;48.488;9.202;2023-02-01T05:20:18;7.30;60.00
17208;DHT22;8720;48.488;9.202;2023-02-01T05:22:45;7.30;60.10
17208;DHT22;8720;48.488;9.202;2023-02-01T05:25:12;7.30;60.90
17208;DHT22;8720;48.488;9.202;2023-02-01T05:27:40;7.30;60.20
17208;DHT22;8720;48.488;9.202;2023-02-01T05:30:08;7.30;60.10
17208;DHT22;8720;48.488;9.202;2023-02-01T05:32:37;7.30;59.90
17208;DHT22;8720;48.488;9.202;2023-02-01T05:35:09;7.30;60.10
17208;DHT22;8720;48.488;9.202;2023-02-01T05:37:36;7.30;59.90
17208;DHT22;8720;48.488;9.202;2023-02-01T05:40:05;7.30;60.10
17208;DHT22;8720;48.488;9.202;2023-02-01T05:42:33;7.30;60.00
17208;DHT22;8720;48.488;9.202;2023-02-01T05:45:00;7.30;59.90
17208;DHT22;8720;48.488;9.202;2023-02-01T05:47:27;7.30;60.00
17208;DHT22;8720;48.488;9.202;2023-02-01T05:49:55;7.40;60.00
17208;DHT22;8720;48.488;9.202;2023-02-01T05:52:23;7.30;59.90
17208;DHT22;8720;48.488;9.202;2023-02-01T05:54:51;7.40;59.70
17208;DHT22;8720;48.488;9.202;2023-02-01T05:57:18;7.30;59.80
17208;DHT22;8720;48.488;9.202;2023-02-01T05:59:45;7.40;59.80
17208;DHT22;8720;48.488;9.202;2023-02-01T06:02:13;7.30;59.60
17208;DHT22;8720;48.488;9.202;2023-02-01T06:04:41;7.40;59.70
17208;DHT22;8720;48.488;9.202;2023-02-01T06:07:09;7.40;59.70
17208;DHT22;8720;48.488;9.202;2023-02-01T06:09:38;7.40;59.60
17208;DHT22;8720;48.488;9.202;2023-02-01T06:12:06;7.40;59.40
17208;DHT22;8720;48.488;9.202;2023-02-01T06:14:34;7.40;59.60
17208;DHT22;8720;48.488;9.202;2023-02-01T06:17:02;7.40;59.60
17208;DHT22;8720;48.488;9.202;2023-02-01T06:19:31;7.50;59.60
17208;DHT22;8720;48.488;9.202;2023-02-01T06:21:58;7.50;59.50
17208;DHT22;8720;48.488;9.202;2023-02-01T06:24:28;7.50;59.50
17208;DHT22;8720;48.488;9.202;2023-02-01T06:26:57;7.50;59.00
17208;DHT22;8720;48.488;9.202;2023-02-01T06:29:24;7.50;59.20
17208;DHT22;8720;48.488;9.202;2023-02-01T06:31:52;7.50;59.40
17208;DHT22;8720;48.488;9.202;2023-02-01T06:34:19;7.60;59.30
17208;DHT22;8720;48.488;9.202;2023-02-01T06:36:47;7.60;59.20
17208;DHT22;8720;48.488;9.202;2023-02-01T06:39:15;7.60;59.50
17208;DHT22;8720;48.488;9.202;2023-02-01T06:41:42;7.60;59.60
17208;DHT22;8720;48.488;9.202;2023-02-01T06:44:13;7.60;59.70
17208;DHT22;8720;48.488;9.202;2023-02-01T06:46:41;7.60;60.40
17208;DHT22;8720;48.488;9.202;2023-02-01T06:49:11;7.60;60.20
17208;DHT22;8720;48.488;9.202;2023-02-01T06:51:38;7.60;60.40
17208;DHT22;8720;48.488;9.202;2023-02-01T06:54:06;7.60;60.50
17208;DHT22;8720;48.488;9.202;2023-02-01T06:56:33;7.50;60.30
17208;DHT22;8720;48.488;9.202;2023-02-01T06:59:03;7.50;60.40
17208;DHT22;8720;48.488;9.202;2023-02-01T07:01:32;7.50;60.20
17208;DHT22;8720;48.488;9.202;2023-02-01T07:04:00;7.50;60.60
17208;DHT22;8720;48.488;9.202;2023-02-01T07:06:27;7.40;60.60
17208;DHT22;8720;48.488;9.202;2023-02-01T07:08:54;7.40;60.70
17208;DHT22;8720;48.488;9.202;2023-02-01T07:11:22;7.40;60.70
17208;DHT22;8720;48.488;9.202;2023-02-01T07:13:50;7.40;60.60
17208;DHT22;8720;48.488;9.202;2023-02-01T07:16:19;7.40;60.50
17208;DHT22;8720;48.488;9.202;2023-02-01T07:18:49;7.40;60.20
17208;DHT22;8720;48.488;9.202;2023-02-01T07:21:18;7.40;60.00
17208;DHT22;8720;48.488;9.202;2023-02-01T07:23:46;7.40;60.30
17208;DHT22;8720;48.488;9.202;2023-02-01T07:26:14;7.40;60.50
17208;DHT22;8720;48.488;9.202;2023-02-01T07:28:42;7.40;60.40
17208;DHT22;8720;48.488;9.202;2023-02-01T07:31:11;7.40;60.60
17208;DHT22;8720;48.488;9.202;2023-02-01T07:33:41;7.30;60.60
17208;DHT22;8720;48.488;9.202;2023-02-01T07:36:11;7.30;60.70
17208;DHT22;8720;48.488;9.202;2023-02-01T07:38:40;7.40;60.60
17208;DHT22;8720;48.488;9.202;2023-02-01T07:41:08;7.40;60.80
17208;DHT22;8720;48.488;9.202;2023-02-01T07:43:36;7.40;60.90
17208;DHT22;8720;48.488;9.202;2023-02-01T07:46:04;7.40;60.90
17208;DHT22;8720;48.488;9.202;2023-02-01T07:48:34;7.40;60.90
17208;DHT22;8720;48.488;9.202;2023-02-01T07:51:05;7.40;61.30
17208;DHT22;8720;48.488;9.202;2023-02-01T07:53:37;7.40;60.70
17208;DHT22;8720;48.488;9.202;2023-02-01T07:56:10;7.50;60.70
17208;DHT22;8720;48.488;9.202;2023-02-01T07:58:39;7.50;60.40
17208;DHT22;8720;48.488;9.202;2023-02-01T08:01:14;7.50;60.80
17208;DHT22;8720;48.488;9.202;2023-02-01T08:03:47;7.50;60.10
17208;DHT22;8720;48.488;9.202;2023-02-01T08:06:15;7.50;60.70
17208;DHT22;8720;48.488;9.202;2023-02-01T08:08:44;7.50;60.70
17208;DHT22;8720;48.488;9.202;2023-02-01T08:11:13;7.50;60.50
17208;DHT22;8720;48.488;9.202;2023-02-01T08:13:41;7.60;60.70
17208;DHT22;8720;48.488;9.202;2023-02-01T08:16:10;7.60;60.60
17208;DHT22;8720;48.488;9.202;2023-02-01T08:18:39;7.60;60.50
17208;DHT22;8720;48.488;9.202;2023-02-01T08:21:08;7.60;60.50
17208;DHT22;8720;48.488;9.202;2023-02-01T08:23:40;7.60;60.40
17208;DHT22;8720;48.488;9.202;2023-02-01T08:26:12;7.70;60.30
17208;DHT22;8720;48.488;9.202;2023-02-01T08:28:42;7.80;60.00
17208;DHT22;8720;48.488;9.202;2023-02-01T08:31:12;7.80;60.10
17208;DHT22;8720;48.488;9.202;2023-02-01T08:33:49;7.80;60.00
17208;DHT22;8720;48.488;9.202;2023-02-01T08:36:18;7.80;59.40
17208;DHT22;8720;48.488;9.202;2023-02-01T08:38:45;7.90;60.00
17208;DHT22;8720;48.488;9.202;2023-02-01T08:41:17;7.90;60.00
17208;DHT22;8720;48.488;9.202;2023-02-01T08:43:47;7.90;59.70
17208;DHT22;8720;48.488;9.202;2023-02-01T08:46:15;7.90;60.00
17208;DHT22;8720;48.488;9.202;2023-02-01T08:48:43;7.90;60.00
17208;DHT22;8720;48.488;9.202;2023-02-01T08:51:13;8.00;60.00
17208;DHT22;8720;48.488;9.202;2023-02-01T08:53:42;8.00;59.80
17208;DHT22;8720;48.488;9.202;2023-02-01T08:56:11;8.00;59.80
17208;DHT22;8720;48.488;9.202;2023-02-01T08:58:41;8.00;59.70
17208;DHT22;8720;48.488;9.202;2023-02-01T09:01:14;8.10;59.90
17208;DHT22;8720;48.488;9.202;2023-02-01T09:03:43;8.10;59.50
17208;DHT22;8720;48.488;9.202;2023-02-01T09:06:12;8.10;59.70
17208;DHT22;8720;48.488;9.202;2023-02-01T09:08:42;8.20;59.50
17208;DHT22;8720;48.488;9.202;2023-02-01T09:11:12;8.20;59.70
17208;DHT22;8720;48.488;9.202;2023-02-01T09:13:42;8.30;59.50
17208;DHT22;8720;48.488;9.202;2023-02-01T09:16:10;8.30;59.50
17208;DHT22;8720;48.488;9.202;2023-02-01T09:18:37;8.30;59.40
17208;DHT22;8720;48.488;9.202;2023-02-01T09:21:05;8.30;59.20
17208;DHT22;8720;48.488;9.202;2023-02-01T09:23:34;8.30;58.90
17208;DHT22;8720;48.488;9.202;2023-02-01T09:26:03;8.40;58.80
17208;DHT22;8720;48.488;9.202;2023-02-01T09:28:34;8.30;58.50
17208;DHT22;8720;48.488;9.202;2023-02-01T09:31:02;8.30;58.20
17208;DHT22;8720;48.488;9.202;2023-02-01T09:33:30;8.30;58.20
17208;DHT22;8720;48.488;9.202;2023-02-01T09:35:57;8.30;58.30
17208;DHT22;8720;48.488;9.202;2023-02-01T09:38:26;8.30;58.00
17208;DHT22;8720;48.488;9.202;2023-02-01T09:40:55;8.30;58.00
17208;DHT22;8720;48.488;9.202;2023-02-01T09:43:36;8.20;57.60
17208;DHT22;8720;48.488;9.202;2023-02-01T09:46:20;8.20;56.90
17208;DHT22;8720;48.488;9.202;2023-02-01T09:48:53;8.20;57.10
17208;DHT22;8720;48.488;9.202;2023-02-01T09:51:25;8.20;57.60
17208;DHT22;8720;48.488;9.202;2023-02-01T09:54:01;8.10;57.50
17208;DHT22;8720;48.488;9.202;2023-02-01T09:56:39;8.10;57.30
17208;DHT22;8720;48.488;9.202;2023-02-01T09:59:21;8.10;57.30
17208;DHT22;8720;48.488;9.202;2023-02-01T10:01:57;8.10;57.10
17208;DHT22;8720;48.488;9.202;2023-02-01T10:04:26;8.20;58.20
17208;DHT22;8720;48.488;9.202;2023-02-01T10:07:05;8.20;58.00
17208;DHT22;8720;48.488;9.202;2023-02-01T10:09:59;8.20;57.30
17208;DHT22;8720;48.488;9.202;2023-02-01T10:12:51;8.20;56.50
17208;DHT22;8720;48.488;9.202;2023-02-01T10:15:41;8.30;56.90
17208;DHT22;8720;48.488;9.202;2023-02-01T10:18:28;8.30;57.20
17208;DHT22;8720;48.488;9.202;2023-02-01T10:21:14;8.40;57.20
17208;DHT22;8720;48.488;9.202;2023-02-01T10:23:59;8.40;57.20
17208;DHT22;8720;48.488;9.202;2023-02-01T10:26:39;8.50;56.90
17208;DHT22;8720;48.488;9.202;2023-02-01T10:29:16;8.50;57.30
17208;DHT22;8720;48.488;9.202;2023-02-01T10:31:48;8.50;56.70
17208;DHT22;8720;48.488;9.202;2023-02-01T10:34:18;8.50;57.10
17208;DHT22;8720;48.488;9.202;2023-02-01T10:36:54;8.60;56.80
17208;DHT22;8720;48.488;9.202;2023-02-01T10:39:23;8.60;56.40
17208;DHT22;8720;48.488;9.202;2023-02-01T10:41:51;8.60;57.10
17208;DHT22;8720;48.488;9.202;2023-02-01T10:44:23;8.60;57.00
17208;DHT22;8720;48.488;9.202;2023-02-01T10:46:54;8.60;56.80
17208;DHT22;8720;48.488;9.202;2023-02-01T10:49:26;8.60;56.90
17208;DHT22;8720;48.488;9.202;2023-02-01T10:52:05;8.70;56.70
17208;DHT22;8720;48.488;9.202;2023-02-01T10:54:39;8.70;56.60
17208;DHT22;8720;48.488;9.202;2023-02-01T10:57:08;8.80;56.90
17208;DHT22;8720;48.488;9.202;2023-02-01T10:59:37;8.80;56.80
17208;DHT22;8720;48.488;9.202;2023-02-01T11:02:26;8.80;56.80
17208;DHT22;8720;48.488;9.202;2023-02-01T11:05:01;8.80;55.00
17208;DHT22;8720;48.488;9.202;2023-02-01T11:07:30;8.90;55.90
17208;DHT22;8720;48.488;9.202;2023-02-01T11:10:34;8.90;56.30
17208;DHT22;8720;48.488;9.202;2023-02-01T11:13:04;8.90;54.80
17208;DHT22;8720;48.488;9.202;2023-02-01T11:15:32;8.90;56.40
17208;DHT22;8720;48.488;9.202;2023-02-01T11:18:16;8.90;56.50
17208;DHT22;8720;48.488;9.202;2023-02-01T11:20:45;8.90;55.10
17208;DHT22;8720;48.488;9.202;2023-02-01T11:23:19;8.90;56.40
17208;DHT22;8720;48.488;9.202;2023-02-01T11:25:52;8.90;56.20
17208;DHT22;8720;48.488;9.202;2023-02-01T11:28:24;8.90;56.20
17208;DHT22;8720;48.488;9.202;2023-02-01T11:30:55;8.90;56.00
17208;DHT22;8720;48.488;9.202;2023-02-01T11:33:30;8.90;56.00
17208;DHT22;8720;48.488;9.202;2023-02-01T11:36:05;9.00;55.70
17208;DHT22;8720;48.488;9.202;2023-02-01T11:38:35;9.00;56.20
17208;DHT22;8720;48.488;9.202;2023-02-01T11:41:12;8.90;56.20
17208;DHT22;8720;48.488;9.202;2023-02-01T11:43:57;9.00;55.20
17208;DHT22;8720;48.488;9.202;2023-02-01T11:46:29;9.00;54.90
17208;DHT22;8720;48.488;9.202;2023-02-01T11:49:25;9.00;55.80
17208;DHT22;8720;48.488;9.202;2023-02-01T11:52:10;9.00;54.90
17208;DHT22;8720;48.488;9.202;2023-02-01T11:55:07;9.00;55.00
17208;DHT22;8720;48.488;9.202;2023-02-01T11:57:54;9.00;55.00
17208;DHT22;8720;48.488;9.202;2023-02-01T12:00:52;9.00;55.10
17208;DHT22;8720;48.488;9.202;2023-02-01T12:06:53;8.90;54.50
17208;DHT22;8720;48.488;9.202;2023-02-01T12:09:42;8.90;55.40
17208;DHT22;8720;48.488;9.202;2023-02-01T12:12:27;9.00;54.60
17208;DHT22;8720;48.488;9.202;2023-02-01T12:15:30;9.00;55.60
17208;DHT22;8720;48.488;9.202;2023-02-01T12:22:05;9.00;54.30
17208;DHT22;8720;48.488;9.202;2023-02-01T12:24:52;9.10;54.60
17208;DHT22;8720;48.488;9.202;2023-02-01T12:27:46;9.10;54.90
17208;DHT22;8720;48.488;9.202;2023-02-01T12:30:43;9.00;54.80
17208;DHT22;8720;48.488;9.202;2023-02-01T12:33:35;9.00;54.30
17208;DHT22;8720;48.488;9.202;2023-02-01T12:36:16;9.00;54.60
17208;DHT22;8720;48.488;9.202;2023-02-01T12:38:55;9.00;55.00
17208;DHT22;8720;48.488;9.202;2023-02-01T12:41:48;9.00;55.30
17208;DHT22;8720;48.488;9.202;2023-02-01T12:44:32;9.00;54.40
17208;DHT22;8720;48.488;9.202;2023-02-01T12:47:09;9.00;54.00
17208;DHT22;8720;48.488;9.202;2023-02-01T12:49:48;9.00;54.60
17208;DHT22;8720;48.488;9.202;2023-02-01T12:52:23;9.00;54.80
17208;DHT22;8720;48.488;9.202;2023-02-01T12:55:07;9.00;54.70
17208;DHT22;8720;48.488;9.202;2023-02-01T12:57:46;9.00;54.30
17208;DHT22;8720;48.488;9.202;2023-02-01T13:00:23;8.90;54.60
17208;DHT22;8720;48.488;9.202;2023-02-01T13:03:03;9.00;54.20
17208;DHT22;8720;48.488;9.202;2023-02-01T13:05:46;8.90;54.30
17208;DHT22;8720;48.488;9.202;2023-02-01T13:08:22;8.90;54.10
17208;DHT22;8720;48.488;9.202;2023-02-01T13:10:58;8.90;54.40
17208;DHT22;8720;48.488;9.202;2023-02-01T13:13:40;8.90;54.20
17208;DHT22;8720;48.488;9.202;2023-02-01T13:16:15;8.90;54.10
17208;DHT22;8720;48.488;9.202;2023-02-01T13:18:51;8.90;54.30
17208;DHT22;8720;48.488;9.202;2023-02-01T13:21:23;8.90;54.50
17208;DHT22;8720;48.488;9.202;2023-02-01T13:23:53;8.90;54.50
17208;DHT22;8720;48.488;9.202;2023-02-01T13:26:22;8.90;54.60
17208;DHT22;8720;48.488;9.202;2023-02-01T13:28:51;8.90;54.50
17208;DHT22;8720;48.488;9.202;2023-02-01T13:31:52;8.80;54.40
17208;DHT22;8720;48.488;9.202;2023-02-01T13:34:49;8.80;53.00
17208;DHT22;8720;48.488;9.202;2023-02-01T13:37:55;8.80;53.90
17208;DHT22;8720;48.488;9.202;2023-02-01T13:40:38;8.80;54.60
17208;DHT22;8720;48.488;9.202;2023-02-01T13:43:14;8.80;54.20
17208;DHT22;8720;48.488;9.202;2023-02-01T13:45:49;8.80;54.20
17208;DHT22;8720;48.488;9.202;2023-02-01T13:48:22;8.70;54.30
17208;DHT22;8720;48.488;9.202;2023-02-01T13:50:57;8.70;54.20
17208;DHT22;8720;48.488;9.202;2023-02-01T13:53:29;8.60;54.40
17208;DHT22;8720;48.488;9.202;2023-02-01T13:56:00;8.60;54.20
17208;DHT22;8720;48.488;9.202;2023-02-01T13:58:33;8.60;54.60
17208;DHT22;8720;48.488;9.202;2023-02-01T14:04:46;8.60;53.70
17208;DHT22;8720;48.488;9.202;2023-02-01T14:07:22;8.60;53.50
17208;DHT22;8720;48.488;9.202;2023-02-01T14:09:49;8.60;54.60
17208;DHT22;8720;48.488;9.202;2023-02-01T14:12:43;8.60;54.80
17208;DHT22;8720;48.488;9.202;2023-02-01T14:15:24;8.60;53.50
17208;DHT22;8720;48.488;9.202;2023-02-01T14:17:53;8.60;54.00
17208;DHT22;8720;48.488;9.202;2023-02-01T14:20:46;8.60;54.80
17208;DHT22;8720;48.488;9.202;2023-02-01T14:23:29;8.60;53.50
17208;DHT22;8720;48.488;9.202;2023-02-01T14:26:19;8.60;54.40
17208;DHT22;8720;48.488;9.202;2023-02-01T14:29:03;8.60;53.50
17208;DHT22;8720;48.488;9.202;2023-02-01T14:31:54;8.60;53.70
17208;DHT22;8720;48.488;9.202;2023-02-01T14:34:50;8.60;54.40
17208;DHT22;8720;48.488;9.202;2023-02-01T14:37:27;8.60;53.70
17208;DHT22;8720;48.488;9.202;2023-02-01T14:39:59;8.60;54.50
17208;DHT22;8720;48.488;9.202;2023-02-01T14:42:31;8.60;55.00
17208;DHT22;8720;48.488;9.202;2023-02-01T14:45:48;8.60;54.80
17208;DHT22;8720;48.488;9.202;2023-02-01T14:48:42;8.60;53.70
17208;DHT22;8720;48.488;9.202;2023-02-01T14:51:15;8.50;53.80
17208;DHT22;8720;48.488;9.202;2023-02-01T14:53:45;8.50;54.70
17208;DHT22;8720;48.488;9.202;2023-02-01T14:56:16;8.50;54.80
17208;DHT22;8720;48.488;9.202;2023-02-01T14:58:53;8.50;54.60
17208;DHT22;8720;48.488;9.202;2023-02-01T15:01:26;8.50;54.50
17208;DHT22;8720;48.488;9.202;2023-02-01T15:04:01;8.50;54.80
17208;DHT22;8720;48.488;9.202;2023-02-01T15:06:37;8.50;54.50
17208;DHT22;8720;48.488;9.202;2023-02-01T15:09:09;8.50;54.50
17208;DHT22;8720;48.488;9.202;2023-02-01T15:11:56;8.60;54.60
17208;DHT22;8720;48.488;9.202;2023-02-01T15:14:25;8.50;53.90
17208;DHT22;8720;48.488;9.202;2023-02-01T15:16:53;8.50;54.80
17208;DHT22;8720;48.488;9.202;2023-02-01T15:19:24;8.50;55.00
17208;DHT22;8720;48.488;9.202;2023-02-01T15:21:55;8.50;54.70
17208;DHT22;8720;48.488;9.202;2023-02-01T15:24:25;8.50;54.70
17208;DHT22;8720;48.488;9.202;2023-02-01T15:27:02;8.50;54.70
17208;DHT22;8720;48.488;9.202;2023-02-01T15:29:34;8.50;54.80
17208;DHT22;8720;48.488;9.202;2023-02-01T15:32:01;8.50;54.90
17208;DHT22;8720;48.488;9.202;2023-02-01T15:34:47;8.50;54.90
17208;DHT22;8720;48.488;9.202;2023-02-01T15:37:16;8.50;53.80
17208;DHT22;8720;48.488;9.202;2023-02-01T15:40:05;8.50;54.80
17208;DHT22;8720;48.488;9.202;2023-02-01T15:42:51;8.50;54.10
17208;DHT22;8720;48.488;9.202;2023-02-01T15:45:23;8.50;54.60
17208;DHT22;8720;48.488;9.202;2023-02-01T15:47:55;8.50;55.00
17208;DHT22;8720;48.488;9.202;2023-02-01T15:50:29;8.50;54.90
17208;DHT22;8720;48.488;9.202;2023-02-01T15:52:58;8.50;54.60
17208;DHT22;8720;48.488;9.202;2023-02-01T15:55:34;8.50;54.90
17208;DHT22;8720;48.488;9.202;2023-02-01T15:58:05;8.50;54.30
17208;DHT22;8720;48.488;9.202;2023-02-01T16:00:42;8.50;54.80
17208;DHT22;8720;48.488;9.202;2023-02-01T16:03:26;8.40;54.10
17208;DHT22;8720;48.488;9.202;2023-02-01T16:06:04;8.50;54.20
17208;DHT22;8720;48.488;9.202;2023-02-01T16:08:33;8.50;54.80
17208;DHT22;8720;48.488;9.202;2023-02-01T16:11:20;8.50;54.90
17208;DHT22;8720;48.488;9.202;2023-02-01T16:13:49;8.50;53.90
17208;DHT22;8720;48.488;9.202;2023-02-01T16:16:17;8.50;54.90
17208;DHT22;8720;48.488;9.202;2023-02-01T16:18:44;8.40;54.80
17208;DHT22;8720;48.488;9.202;2023-02-01T16:21:13;8.40;54.70
17208;DHT22;8720;48.488;9.202;2023-02-01T16:23:41;8.40;54.30
17208;DHT22;8720;48.488;9.202;2023-02-01T16:26:08;8.40;54.50
17208;DHT22;8720;48.488;9.202;2023-02-01T16:28:36;8.40;54.60
17208;DHT22;8720;48.488;9.202;2023-02-01T16:31:03;8.40;54.70
17208;DHT22;8720;48.488;9.202;2023-02-01T16:33:30;8.40;54.80
17208;DHT22;8720;48.488;9.202;2023-02-01T16:35:58;8.40;54.70
17208;DHT22;8720;48.488;9.202;2023-02-01T16:38:29;8.40;54.60
17208;DHT22;8720;48.488;9.202;2023-02-01T16:40:58;8.40;54.40
17208;DHT22;8720;48.488;9.202;2023-02-01T16:43:27;8.40;54.60
17208;DHT22;8720;48.488;9.202;2023-02-01T16:45:59;8.40;54.60
17208;DHT22;8720;48.488;9.202;2023-02-01T16:48:30;8.40;54.20
17208;DHT22;8720;48.488;9.202;2023-02-01T16:51:02;8.40;54.60
17208;DHT22;8720;48.488;9.202;2023-02-01T16:53:34;8.30;54.40
17208;DHT22;8720;48.488;9.202;2023-02-01T16:56:08;8.40;54.30
17208;DHT22;8720;48.488;9.202;2023-02-01T16:58:39;8.30;54.20
17208;DHT22;8720;48.488;9.202;2023-02-01T17:01:09;8.30;54.60
17208;DHT22;8720;48.488;9.202;2023-02-01T17:03:38;8.30;54.40
17208;DHT22;8720;48.488;9.202;2023-02-01T17:06:06;8.40;54.70